Time;durP1;ratioP1;P1;durP2;ratioP2;P2;SDS_P1;SDS_P2;PMS_P1;PMS_P2;Temp;Humidity;BMP_temperature;BMP_pressure;BME280_temperature;BME280_humidity;BME280_pressure;Samples;Min_cycle;Max_cycle;Signal;HPM_P1;HPM_P2
2022/05/16 00:02:01;;;;;;;;;8.75;8.00;;;;;23.52;100.00;100936.34;5037220;28;45459;-83
2022/05/16 00:04:27;;;;;;;;;6.50;6.25;;;;;23.55;100.00;100925.75;5037315;28;45447;-82
2022/05/16 00:06:52;;;;;;;;;7.00;6.25;;;;;23.58;100.00;100926.63;5036223;28;45554;-81
2022/05/16 00:09:18;;;;;;;;;8.00;7.00;;;;;23.59;100.00;100923.09;5036980;28;45392;-81
2022/05/16 00:11:44;;;;;;;;;9.00;9.00;;;;;23.59;100.00;100932.78;5036215;28;45487;-78
2022/05/16 00:14:10;;;;;;;;;8.00;6.00;;;;;23.60;100.00;100964.50;5037391;28;45320;-80
2022/05/16 00:16:36;;;;;;;;;7.00;6.00;;;;;23.61;100.00;100963.59;5036736;28;45367;-82
2022/05/16 00:19:03;;;;;;;;;7.50;7.50;;;;;23.59;100.00;100946.00;5037060;28;45266;-79
2022/05/16 00:21:29;;;;;;;;;7.50;6.25;;;;;23.57;100.00;100967.13;5037513;28;45422;-81
2022/05/16 00:23:54;;;;;;;;;12.50;11.75;;;;;23.54;100.00;100938.09;5019727;28;45360;-81
2022/05/16 00:26:20;;;;;;;;;10.75;7.25;;;;;23.51;100.00;100927.56;5036803;28;45954;-79
2022/05/16 00:28:45;;;;;;;;;6.50;5.75;;;;;23.50;100.00;100917.88;5037246;28;45426;-79
2022/05/16 00:31:11;;;;;;;;;9.00;9.00;;;;;23.49;100.00;100916.97;5037017;28;45314;-79
2022/05/16 00:33:36;;;;;;;;;8.00;7.50;;;;;23.46;100.00;100935.53;5037699;28;45446;-79
2022/05/16 00:36:03;;;;;;;;;10.25;7.75;;;;;23.41;100.00;100908.22;5036227;28;45391;-83
2022/05/16 00:38:29;;;;;;;;;7.00;7.00;;;;;23.40;100.00;100913.53;5037105;28;45429;-83
2022/05/16 00:40:58;;;;;;;;;8.00;7.00;;;;;23.39;100.00;100920.56;5037361;28;46038;-83
2022/05/16 00:43:55;;;;;;;;;4.25;4.25;;;;;23.36;100.00;100932.94;5018254;28;45328;-81
2022/05/16 00:46:26;;;;;;;;;6.25;6.25;;;;;23.27;100.00;100918.91;5002243;28;46701;-81
2022/05/16 00:48:52;;;;;;;;;5.75;5.75;;;;;23.15;100.00;100922.47;5035706;28;45399;-82
2022/05/16 00:51:23;;;;;;;;;6.75;4.25;;;;;23.11;100.00;100917.22;5036854;28;45485;-82
2022/05/16 00:53:54;;;;;;;;;4.50;4.50;;;;;23.07;100.00;100912.81;5037405;28;45516;-82
2022/05/16 00:56:20;;;;;;;;;4.00;4.00;;;;;22.98;100.00;100908.47;5036546;28;46568;-83
2022/05/16 00:58:47;;;;;;;;;5.25;4.25;;;;;22.92;100.00;100903.22;5036398;28;45890;-82
2022/05/16 01:06:42;;;;;;;;;4.75;4.00;;;;;22.78;100.00;100879.53;5035805;28;45879;-82
2022/05/16 01:09:08;;;;;;;;;6.00;4.00;;;;;22.75;100.00;100890.97;5018144;28;45474;-83
2022/05/16 01:11:36;;;;;;;;;7.00;4.50;;;;;22.69;100.00;100883.09;5036772;28;45495;-83
2022/05/16 01:14:03;;;;;;;;;4.00;4.00;;;;;22.63;100.00;100885.72;5036725;28;45486;-82
2022/05/16 01:16:29;;;;;;;;;5.75;4.25;;;;;22.64;100.00;100893.66;5019331;28;46135;-83
2022/05/16 01:18:54;;;;;;;;;5.25;4.25;;;;;22.62;100.00;100898.06;5036765;28;45535;-83
2022/05/16 01:21:30;;;;;;;;;4.00;4.00;;;;;22.52;100.00;100904.25;5036459;28;45266;-84
2022/05/16 01:24:03;;;;;;;;;3.25;3.25;;;;;22.41;100.00;100889.34;5037432;28;45401;-83
2022/05/16 01:26:30;;;;;;;;;4.50;4.50;;;;;22.28;100.00;100898.13;5036695;28;45972;-83
2022/05/16 01:28:56;;;;;;;;;2.00;2.00;;;;;22.19;100.00;100904.28;5036850;28;45317;-82
2022/05/16 01:31:22;;;;;;;;;2.50;2.50;;;;;22.13;100.00;100909.59;5036459;28;45429;-83
2022/05/16 01:33:48;;;;;;;;;7.00;4.00;;;;;22.05;100.00;100903.47;5037097;28;45336;-82
2022/05/16 01:36:14;;;;;;;;;3.50;3.25;;;;;21.95;100.00;100889.41;5035939;28;45475;-83
2022/05/16 01:38:40;;;;;;;;;5.00;4.00;;;;;21.91;100.00;100904.34;5036518;28;45294;-82
2022/05/16 01:41:09;;;;;;;;;5.00;3.50;;;;;21.89;100.00;100916.63;5036684;28;45426;-83
2022/05/16 01:43:39;;;;;;;;;5.50;4.50;;;;;21.88;100.00;100930.69;5036680;28;45497;-82
2022/05/16 01:46:06;;;;;;;;;7.75;6.00;;;;;21.90;100.00;100923.66;5018073;28;45903;-82
2022/05/16 01:48:32;;;;;;;;;4.75;4.00;;;;;21.92;100.00;100929.81;5036096;28;45603;-82
2022/05/16 01:51:01;;;;;;;;;4.25;4.25;;;;;21.92;100.00;100910.50;5035846;28;45467;-81
2022/05/16 01:53:27;;;;;;;;;6.00;4.75;;;;;21.89;100.00;100900.81;5036865;28;45475;-82
2022/05/16 01:55:53;;;;;;;;;4.00;4.00;;;;;21.86;100.00;100916.66;5035899;28;45485;-82
2022/05/16 01:58:19;;;;;;;;;4.75;4.00;;;;;21.78;100.00;100913.13;5035746;28;45281;-82
2022/05/16 02:00:44;;;;;;;;;9.00;5.75;;;;;21.74;100.00;100916.66;5035446;28;45373;-81
2022/05/16 02:03:11;;;;;;;;;7.50;5.00;;;;;21.70;100.00;100926.31;5035907;28;45549;-82
2022/05/16 02:05:37;;;;;;;;;8.00;7.00;;;;;21.69;100.00;100921.94;5035874;28;46173;-83
2022/05/16 02:08:04;;;;;;;;;6.50;6.00;;;;;21.62;100.00;100923.69;5035482;28;45696;-81
2022/05/16 02:10:30;;;;;;;;;7.50;5.00;;;;;21.60;100.00;100928.06;5036011;28;45566;-82
2022/05/16 02:12:59;;;;;;;;;5.50;4.00;;;;;21.58;100.00;100934.19;5036433;28;45380;-82
2022/05/16 02:15:29;;;;;;;;;5.00;5.00;;;;;21.61;100.00;100940.34;5035558;28;45491;-82
2022/05/16 02:17:55;;;;;;;;;6.25;6.25;;;;;21.66;100.00;100927.19;5018519;28;45607;-82
2022/05/16 02:20:21;;;;;;;;;8.00;7.00;;;;;21.72;100.00;100915.78;5035633;28;45320;-82
2022/05/16 02:25:33;;;;;;;;;8.25;6.00;;;;;21.74;100.00;100916.66;5035121;28;45889;-80
2022/05/16 02:27:59;;;;;;;;;5.00;5.00;;;;;21.74;100.00;100929.84;5035770;28;45942;-82
2022/05/16 02:30:25;;;;;;;;;6.00;6.00;;;;;21.76;100.00;100930.69;5034919;28;45378;-81
2022/05/16 02:32:51;;;;;;;;;7.00;6.00;;;;;21.76;100.00;100923.69;5035576;28;45317;-81
2022/05/16 02:35:17;;;;;;;;;4.25;4.25;;;;;21.81;100.00;100928.94;5034966;28;45890;-80
2022/05/16 02:37:43;;;;;;;;;8.25;7.00;;;;;21.82;100.00;100935.97;5035622;28;45705;-79
2022/05/16 02:40:09;;;;;;;;;8.00;6.75;;;;;21.80;100.00;100941.25;5035152;28;45376;-81
2022/05/16 02:42:35;;;;;;;;;7.00;7.00;;;;;21.81;100.00;100939.50;5017541;28;45613;-78
2022/05/16 02:45:01;;;;;;;;;7.75;7.75;;;;;21.79;100.00;100954.41;5035027;28;45629;-78
2022/05/16 02:47:27;;;;;;;;;6.00;6.00;;;;;21.77;100.00;100943.00;5035427;28;45833;-79
2022/05/16 02:49:52;;;;;;;;;7.00;7.00;;;;;21.77;100.00;100956.16;5035315;28;45395;-78
2022/05/16 02:52:18;;;;;;;;;7.25;6.75;;;;;21.77;100.00;100950.91;5035413;28;45583;-81
2022/05/16 02:54:44;;;;;;;;;10.50;7.50;;;;;21.78;100.00;100963.19;5035325;28;45379;-82
2022/05/16 02:57:11;;;;;;;;;8.50;7.75;;;;;21.78;100.00;100950.91;5017197;28;45324;-82
2022/05/16 02:59:36;;;;;;;;;11.00;8.00;;;;;21.75;100.00;100956.19;5016855;28;45407;-82
2022/05/16 03:02:05;;;;;;;;;7.75;7.00;;;;;21.76;100.00;100962.31;5035013;28;45277;-82
2022/05/16 03:04:31;;;;;;;;;10.00;8.50;;;;;21.78;100.00;100979.00;5033532;28;47448;-82
2022/05/16 03:06:58;;;;;;;;;9.50;7.25;;;;;21.80;100.00;100967.63;5035219;28;45978;-83
2022/05/16 03:09:26;;;;;;;;;9.50;8.00;;;;;21.78;100.00;100964.09;5033177;28;45561;-83
2022/05/16 03:11:52;;;;;;;;;13.00;10.75;;;;;21.78;100.00;100956.19;5036303;28;45725;-82
2022/05/16 03:14:19;;;;;;;;;10.25;9.25;;;;;21.78;100.00;100958.81;5037933;28;46156;-82
2022/05/16 03:16:45;;;;;;;;;8.00;6.75;;;;;21.75;100.00;100960.59;5039414;28;45195;-82
2022/05/16 03:19:11;;;;;;;;;10.75;9.75;;;;;21.74;100.00;100961.47;5038758;28;46060;-82
2022/05/16 03:21:37;;;;;;;;;12.00;9.00;;;;;21.73;100.00;100963.19;5038718;28;45471;-82
2022/05/16 03:24:03;;;;;;;;;9.50;9.50;;;;;21.75;100.00;100974.63;5038124;28;45972;-82
2022/05/16 03:26:28;;;;;;;;;12.00;11.00;;;;;21.76;100.00;100981.66;5038784;28;45392;-82
2022/05/16 03:28:54;;;;;;;;;11.00;10.25;;;;;21.75;100.00;100989.56;5037762;28;45776;-82
2022/05/16 03:31:20;;;;;;;;;10.00;10.00;;;;;21.75;100.00;100981.66;5038407;28;45731;-83
2022/05/16 03:33:46;;;;;;;;;10.75;9.50;;;;;21.75;100.00;100993.06;5038045;28;46189;-83
2022/05/16 03:36:12;;;;;;;;;14.50;10.75;;;;;21.76;100.00;100989.56;5037420;28;45396;-82
2022/05/16 03:41:22;;;;;;;;;13.75;11.25;;;;;21.69;100.00;100973.72;5038621;28;45249;-82
2022/05/16 03:43:50;;;;;;;;;10.50;9.25;;;;;21.65;100.00;100967.59;5040859;28;45395;-83
2022/05/16 03:46:17;;;;;;;;;13.25;10.00;;;;;21.57;100.00;100964.91;5039002;28;45435;-83
2022/05/16 03:48:43;;;;;;;;;13.50;12.75;;;;;21.55;100.00;100987.72;5038133;28;45400;-83
2022/05/16 03:51:12;;;;;;;;;15.75;14.50;;;;;21.47;100.00;100976.28;5037612;28;45340;-83
2022/05/16 03:53:47;;;;;;;;;15.50;13.00;;;;;21.47;100.00;100985.09;5037067;28;45387;-82
2022/05/16 03:56:14;;;;;;;;;12.75;12.25;;;;;21.42;100.00;100985.97;5037466;28;45802;-82
2022/05/16 03:58:40;;;;;;;;;10.75;10.75;;;;;21.36;100.00;100989.47;5038204;28;45486;-82
2022/05/16 04:01:06;;;;;;;;;18.50;13.25;;;;;21.31;100.00;101018.41;5019589;28;45592;-82
2022/05/16 04:03:31;;;;;;;;;12.75;12.00;;;;;21.26;100.00;101024.53;5036886;28;45868;-83
2022/05/16 04:05:57;;;;;;;;;16.00;13.25;;;;;21.21;100.00;101028.88;5018668;28;45634;-83
2022/05/16 04:08:22;;;;;;;;;13.00;13.00;;;;;21.16;100.00;101028.88;5036104;28;45427;-82
2022/05/16 04:10:48;;;;;;;;;13.00;13.00;;;;;21.12;100.00;101035.88;5019614;28;45475;-81
2022/05/16 04:13:14;;;;;;;;;15.75;14.75;;;;;21.09;100.00;101038.50;5037276;28;46332;-82
2022/05/16 04:15:39;;;;;;;;;14.75;14.50;;;;;21.07;100.00;101034.09;5037176;28;45335;-82
2022/05/16 04:18:05;;;;;;;;;15.75;14.00;;;;;21.07;100.00;101031.47;5037319;28;45468;-82
2022/05/16 04:20:31;;;;;;;;;12.25;11.50;;;;;21.11;100.00;101038.53;5037451;28;45371;-82
2022/05/16 04:22:56;;;;;;;;;17.75;14.50;;;;;21.11;100.00;101036.75;5018753;28;46482;-81
2022/05/16 04:25:22;;;;;;;;;16.25;13.50;;;;;21.13;100.00;101045.53;5037056;28;45353;-82
2022/05/16 04:27:48;;;;;;;;;15.25;14.25;;;;;21.13;100.00;101040.28;5037467;28;45369;-82
2022/05/16 04:30:14;;;;;;;;;13.00;13.00;;;;;21.11;100.00;101060.44;5037646;28;45229;-81
2022/05/16 04:32:39;;;;;;;;;12.00;11.75;;;;;21.08;100.00;101060.41;5037496;28;46271;-82
2022/05/16 04:35:07;;;;;;;;;14.50;12.50;;;;;21.06;100.00;101059.53;5037261;28;45482;-81
2022/05/16 04:37:33;;;;;;;;;15.75;13.50;;;;;21.06;100.00;101067.41;5037613;28;45397;-82
2022/05/16 04:40:00;;;;;;;;;13.25;13.25;;;;;21.08;100.00;101076.22;5038076;28;45343;-82
2022/05/16 04:42:41;;;;;;;;;13.50;12.00;;;;;21.07;100.00;101082.34;5037666;28;45301;-83
2022/05/16 04:45:30;;;;;;;;;13.75;11.75;;;;;21.05;100.00;101105.19;5037039;28;45320;-83
2022/05/16 04:47:59;;;;;;;;;14.50;13.00;;;;;21.02;100.00;101103.38;5044230;28;45463;-83
2022/05/16 04:50:28;;;;;;;;;15.75;14.25;;;;;21.01;100.00;101112.16;5020434;28;45261;-82
2022/05/16 04:52:55;;;;;;;;;17.00;13.50;;;;;21.01;100.00;101120.03;5018457;28;45398;-82
2022/05/16 04:55:21;;;;;;;;;15.25;12.75;;;;;21.03;100.00;101125.34;5036906;28;45209;-80
2022/05/16 04:57:48;;;;;;;;;14.25;12.75;;;;;21.09;100.00;101135.03;5036584;28;45548;-78
2022/05/16 05:00:15;;;;;;;;;15.75;14.25;;;;;21.09;100.00;101141.16;5037051;28;45535;-79
2022/05/16 05:02:41;;;;;;;;;15.75;14.75;;;;;21.11;100.00;101144.69;5036793;28;47310;-78
2022/05/16 05:05:08;;;;;;;;;20.00;17.00;;;;;21.12;100.00;101159.63;5035733;28;45500;-78
2022/05/16 05:07:36;;;;;;;;;16.75;15.25;;;;;21.08;100.00;101172.75;5018792;28;45447;-77
2022/05/16 05:15:30;;;;;;;;;22.50;18.25;;;;;20.83;100.00;101165.56;5036178;28;46000;-83
2022/05/16 05:17:56;;;;;;;;;17.25;17.25;;;;;20.79;100.00;101169.03;5037084;28;45221;-81
2022/05/16 05:20:22;;;;;;;;;20.25;17.50;;;;;20.76;100.00;101162.88;5035920;28;45547;-81
2022/05/16 05:22:49;;;;;;;;;20.75;17.25;;;;;20.72;100.00;101168.06;5036472;28;46355;-82
2022/05/16 05:25:17;;;;;;;;;18.75;18.25;;;;;20.77;100.00;101172.53;5036424;28;45320;-82
2022/05/16 05:27:45;;;;;;;;;18.00;16.25;;;;;20.79;100.00;101174.28;5027322;28;45347;-81
2022/05/16 05:30:14;;;;;;;;;23.75;18.25;;;;;20.79;100.00;101169.03;5026046;28;45563;-81
2022/05/16 05:32:40;;;;;;;;;19.50;18.25;;;;;20.81;100.00;101182.19;5026578;28;46357;-78
2022/05/16 05:35:08;;;;;;;;;20.50;17.00;;;;;20.80;100.00;101185.69;5008669;28;45468;-82
2022/05/16 05:37:35;;;;;;;;;17.50;16.00;;;;;20.83;100.00;101189.25;5028738;28;45548;-82
2022/05/16 05:40:02;;;;;;;;;18.00;16.75;;;;;20.87;100.00;101195.41;5038551;28;45336;-80
2022/05/16 05:42:28;;;;;;;;;19.25;17.75;;;;;20.90;100.00;101198.06;5038342;28;45435;-82
2022/05/16 05:44:54;;;;;;;;;18.25;17.00;;;;;20.96;100.00;101197.22;5036816;28;45839;-84
2022/05/16 05:47:20;;;;;;;;;18.75;18.75;;;;;20.95;100.00;101201.63;5038224;28;45415;-86
2022/05/16 05:49:47;;;;;;;;;13.00;13.00;;;;;20.94;100.00;101205.13;5040600;28;45402;-81
2022/05/16 05:52:15;;;;;;;;;15.00;14.75;;;;;20.90;100.00;101218.25;5024375;28;48256;-81
2022/05/16 05:54:42;;;;;;;;;18.25;16.50;;;;;20.91;100.00;101212.13;5042238;28;45863;-82
2022/05/16 05:57:07;;;;;;;;;14.25;13.50;;;;;20.95;100.00;101227.06;5037599;28;45375;-78
2022/05/16 05:59:33;;;;;;;;;17.50;16.50;;;;;20.93;100.00;101237.56;5038952;28;45384;-84
2022/05/16 06:01:59;;;;;;;;;18.00;16.25;;;;;20.91;100.00;101228.78;5042767;28;45329;-84
2022/05/16 06:04:24;;;;;;;;;18.25;15.50;;;;;20.92;100.00;101245.47;5038284;28;45313;-83
2022/05/16 06:06:50;;;;;;;;;12.75;12.75;;;;;20.92;100.00;101251.59;5036538;28;45273;-82
2022/05/16 06:09:16;;;;;;;;;16.25;13.50;;;;;20.91;100.00;101260.34;5017327;28;45502;-88
2022/05/16 06:11:41;;;;;;;;;21.75;17.75;;;;;20.90;100.00;101257.72;5017699;28;46939;-81
2022/05/16 06:14:07;;;;;;;;;20.00;16.75;;;;;20.92;100.00;101259.50;5035315;28;45399;-83
2022/05/16 06:16:32;;;;;;;;;15.00;13.75;;;;;20.97;100.00;101273.59;5039826;28;45483;-82
2022/05/16 06:18:58;;;;;;;;;17.25;16.75;;;;;21.01;100.00;101264.84;5042667;28;45362;-84
2022/05/16 06:21:24;;;;;;;;;16.50;15.00;;;;;21.09;100.00;101279.84;5034724;28;45407;-84
2022/05/16 06:23:50;;;;;;;;;16.75;16.25;;;;;21.13;100.00;101276.34;5034450;28;45367;-87
2022/05/16 06:26:16;;;;;;;;;18.50;16.50;;;;;21.17;100.00;101275.50;5036672;28;45426;-85
2022/05/16 06:28:41;;;;;;;;;17.75;14.50;;;;;21.17;100.00;101275.50;5036610;28;45266;-87
2022/05/16 06:31:07;;;;;;;;;16.25;16.25;;;;;21.14;100.00;101286.91;5038891;28;45858;-85
2022/05/16 06:33:33;;;;;;;;;11.50;11.50;;;;;21.13;100.00;101298.31;5036543;28;45213;-84
2022/05/16 06:36:01;;;;;;;;;15.00;14.00;;;;;21.08;100.00;101289.47;5035639;28;45417;-85
2022/05/16 06:38:31;;;;;;;;;15.00;14.75;;;;;21.05;100.00;101296.47;5036413;28;45341;-86
2022/05/16 06:40:58;;;;;;;;;16.50;14.50;;;;;21.00;100.00;101307.81;5017310;28;45808;-80
2022/05/16 06:43:26;;;;;;;;;18.75;17.00;;;;;21.00;100.00;101309.59;5023881;28;45822;-84
2022/05/16 06:45:53;;;;;;;;;16.75;15.50;;;;;21.02;100.00;101318.38;5033161;28;45412;-83
2022/05/16 06:48:19;;;;;;;;;15.50;13.75;;;;;21.03;100.00;101325.41;5038712;28;45537;-86
2022/05/16 06:50:47;;;;;;;;;14.00;13.00;;;;;21.05;100.00;101328.06;5039588;28;46159;-86
2022/05/16 06:53:16;;;;;;;;;12.75;11.00;;;;;21.08;100.00;101328.09;5026142;28;45524;-85
2022/05/16 06:55:42;;;;;;;;;15.50;12.50;;;;;21.09;100.00;101340.38;5040362;28;45392;-85
2022/05/16 06:58:08;;;;;;;;;13.50;12.00;;;;;21.10;100.00;101339.53;5034107;28;45501;-85
2022/05/16 07:00:33;;;;;;;;;12.50;12.25;;;;;21.15;100.00;101340.44;5033901;28;45441;-84
2022/05/16 07:02:59;;;;;;;;;15.50;13.00;;;;;21.15;100.00;101336.06;5017516;28;45395;-84
2022/05/16 07:05:25;;;;;;;;;18.00;11.75;;;;;21.15;100.00;101346.59;5016360;28;45452;-86
2022/05/16 07:07:51;;;;;;;;;16.75;13.75;;;;;21.14;100.00;101351.84;5017246;28;45574;-82
2022/05/16 07:10:17;;;;;;;;;13.25;10.50;;;;;21.14;100.00;101362.38;5019112;28;45341;-82
2022/05/16 07:12:42;;;;;;;;;12.50;11.75;;;;;21.14;100.00;101355.38;5019985;28;45253;-83
2022/05/16 07:15:08;;;;;;;;;11.75;11.75;;;;;21.16;100.00;101369.44;5020971;28;45192;-81
2022/05/16 07:17:34;;;;;;;;;9.50;9.50;;;;;21.17;100.00;101370.31;5019346;28;45634;-84
2022/05/16 07:20:00;;;;;;;;;12.00;12.00;;;;;21.26;100.00;101377.44;5034657;28;46056;-85
2022/05/16 07:22:25;;;;;;;;;12.00;11.00;;;;;21.30;100.00;101377.47;5034930;28;45442;-79
2022/05/16 07:24:55;;;;;;;;;11.00;10.00;;;;;21.32;100.00;101385.38;5017541;28;45839;-81
2022/05/16 07:30:07;;;;;;;;;12.00;11.00;;;;;21.38;100.00;101384.53;5022119;28;45758;-79
2022/05/16 07:32:41;;;;;;;;;9.75;9.00;;;;;21.38;100.00;101389.81;5026786;28;45439;-82
2022/05/16 07:35:10;;;;;;;;;10.25;10.25;;;;;21.32;100.00;101393.28;4994681;28;45336;-80
2022/05/16 07:37:36;;;;;;;;;9.00;9.00;;;;;21.30;100.00;101398.53;5024724;28;45582;-80
2022/05/16 07:40:01;;;;;;;;;8.25;8.00;;;;;21.33;99.98;101395.03;5034597;28;46477;-80
2022/05/16 07:42:27;;;;;;;;;10.00;9.25;;;;;21.36;100.00;101394.19;5031357;28;45380;-80
2022/05/16 07:44:53;;;;;;;;;14.25;11.25;;;;;21.35;100.00;101401.22;5006396;28;45542;-89
2022/05/16 07:47:18;;;;;;;;;9.75;9.50;;;;;21.32;97.97;101407.34;5038498;28;45632;-81
2022/05/16 07:49:44;;;;;;;;;10.25;10.00;;;;;21.36;99.37;101412.63;5035489;28;45455;-82
2022/05/16 07:52:10;;;;;;;;;11.00;10.50;;;;;21.33;98.02;101410.84;5040033;28;45413;-83
2022/05/16 07:54:37;;;;;;;;;11.25;9.00;;;;;21.32;99.51;101414.34;5042305;28;45388;-83
2022/05/16 07:57:04;;;;;;;;;11.50;9.50;;;;;21.35;99.41;101411.75;5044881;28;45167;-85
2022/05/16 07:59:30;;;;;;;;;9.25;9.00;;;;;21.39;98.85;101412.66;5031668;28;46436;-81
2022/05/16 08:01:56;;;;;;;;;12.00;12.00;;;;;21.41;97.32;101413.56;5037626;28;45396;-82
2022/05/16 08:04:21;;;;;;;;;10.25;9.75;;;;;21.45;96.24;101417.97;5037043;28;45794;-82
2022/05/16 08:06:47;;;;;;;;;13.75;10.50;;;;;21.52;93.49;101427.72;5039106;28;45689;-82
2022/05/16 08:11:57;;;;;;;;;12.75;12.25;;;;;21.54;94.60;101425.97;5036943;28;45394;-78
2022/05/16 08:14:22;;;;;;;;;12.00;11.00;;;;;21.57;96.09;101427.75;5035244;28;45411;-81
2022/05/16 08:16:48;;;;;;;;;10.25;8.25;;;;;21.62;96.41;101433.97;5029191;28;45530;-82
2022/05/16 08:19:14;;;;;;;;;9.25;9.25;;;;;21.69;95.21;101434.91;5041920;28;45489;-82
2022/05/16 08:21:41;;;;;;;;;10.75;10.00;;;;;21.70;95.74;101431.41;5041890;28;45356;-80
2022/05/16 08:24:11;;;;;;;;;9.00;9.00;;;;;21.74;94.53;101434.06;5039173;28;45449;-82
2022/05/16 08:26:37;;;;;;;;;10.50;8.00;;;;;21.77;93.64;101435.84;5038465;28;45765;-81
2022/05/16 08:29:04;;;;;;;;;9.00;8.75;;;;;21.77;93.34;101436.75;5036960;28;45605;-82
2022/05/16 08:31:30;;;;;;;;;10.25;10.00;;;;;21.82;93.98;101443.78;5040286;28;45442;-83
2022/05/16 08:33:57;;;;;;;;;12.25;9.75;;;;;21.87;92.25;101447.38;5021885;28;45428;-82
2022/05/16 08:42:02;;;;;;;;;9.25;8.00;;;;;21.89;91.28;101446.50;5037297;28;45261;-83
2022/05/16 08:44:40;;;;;;;;;11.00;10.50;;;;;21.90;89.47;101452.66;5036894;28;45237;-85
2022/05/16 08:47:39;;;;;;;;;9.50;9.00;;;;;21.95;89.06;101446.56;5035092;28;45729;-84
2022/05/16 08:50:21;;;;;;;;;9.50;8.00;;;;;22.01;89.13;101450.09;5029005;28;45475;-81
2022/05/16 08:53:15;;;;;;;;;8.50;8.00;;;;;22.06;87.94;101453.66;5036003;28;45427;-84
2022/05/16 08:55:47;;;;;;;;;7.00;7.00;;;;;21.99;87.48;101465.94;5030187;28;45443;-81
2022/05/16 08:58:33;;;;;;;;;10.75;8.00;;;;;22.00;87.89;101472.97;5026171;28;45202;-82
2022/05/16 09:01:24;;;;;;;;;9.25;7.75;;;;;22.02;88.28;101483.50;5029381;28;46143;-81
2022/05/16 09:04:01;;;;;;;;;10.00;7.00;;;;;22.02;86.37;101484.41;5023868;28;45702;-79
2022/05/16 09:06:58;;;;;;;;;8.00;8.00;;;;;21.94;85.67;101483.44;5028572;28;45371;-82
2022/05/16 09:09:38;;;;;;;;;9.50;7.00;;;;;21.86;86.25;101485.13;5022332;28;45391;-80
2022/05/16 09:12:18;;;;;;;;;7.00;7.00;;;;;21.79;85.97;101485.09;5036156;28;45403;-81
2022/05/16 09:15:07;;;;;;;;;10.25;6.75;;;;;21.80;87.76;101484.22;5036528;28;45778;-84
2022/05/16 09:17:52;;;;;;;;;10.25;7.50;;;;;21.82;87.20;101492.13;5037845;28;45360;-80
2022/05/16 09:20:36;;;;;;;;;7.50;6.50;;;;;21.81;88.05;101490.38;5038618;28;45363;-81
2022/05/16 09:23:18;;;;;;;;;8.75;7.25;;;;;21.83;87.63;101496.53;5031799;28;46072;-81
2022/05/16 09:26:01;;;;;;;;;13.50;9.25;;;;;21.80;87.04;101502.69;5012544;28;45718;-82
2022/05/16 09:28:37;;;;;;;;;7.00;6.00;;;;;21.73;87.08;101499.97;5028236;28;45361;-79
2022/05/16 09:31:16;;;;;;;;;6.75;6.75;;;;;21.67;86.84;101500.78;5033832;28;45713;-81
2022/05/16 09:33:46;;;;;;;;;7.00;6.25;;;;;21.62;87.84;101507.75;5030335;28;47269;-81
2022/05/16 09:36:14;;;;;;;;;10.00;8.75;;;;;21.60;88.41;101507.75;5034868;28;45489;-82
2022/05/16 09:38:44;;;;;;;;;10.50;9.00;;;;;21.64;89.29;101517.47;5036740;28;45354;-83
2022/05/16 09:41:14;;;;;;;;;8.50;8.50;;;;;21.71;89.18;101514.88;5027555;28;45587;-81
2022/05/16 09:43:50;;;;;;;;;9.50;9.50;;;;;21.74;88.97;101513.16;5008010;28;47495;-78
2022/05/16 09:46:22;;;;;;;;;7.25;6.75;;;;;21.72;89.28;101519.28;5035155;28;45935;-77
2022/05/16 09:49:01;;;;;;;;;8.75;8.50;;;;;21.73;88.39;101526.31;5036031;28;45317;-83
2022/05/16 09:51:29;;;;;;;;;7.50;7.25;;;;;21.72;88.90;101521.91;5035925;28;45560;-81
2022/05/16 09:54:10;;;;;;;;;7.00;6.50;;;;;21.73;89.08;101523.69;5035313;28;47176;-81
2022/05/16 09:56:36;;;;;;;;;8.00;8.00;;;;;21.72;89.00;101521.91;5025029;28;45767;-81
2022/05/16 09:59:04;;;;;;;;;9.00;7.25;;;;;21.86;88.90;101537.88;5031980;28;45471;-83
2022/05/16 10:01:49;;;;;;;;;8.00;8.00;;;;;21.91;88.29;101521.22;5018033;28;45455;-84
2022/05/16 10:04:17;;;;;;;;;8.50;8.00;;;;;21.99;87.56;101539.75;5035427;28;45439;-82
2022/05/16 10:06:58;;;;;;;;;7.25;7.00;;;;;22.06;87.63;101536.28;5052255;28;45321;-81
2022/05/16 10:09:33;;;;;;;;;8.25;7.50;;;;;22.15;86.13;101534.59;5024270;28;45442;-79
2022/05/16 10:12:00;;;;;;;;;8.75;8.25;;;;;22.22;85.56;101524.13;5035441;28;45423;-83
2022/05/16 10:14:26;;;;;;;;;7.25;7.00;;;;;22.31;84.62;101525.03;5026369;28;46542;-88
2022/05/16 10:16:53;;;;;;;;;7.50;7.50;;;;;22.40;84.75;101533.97;5036446;28;45288;-82
2022/05/16 10:19:24;;;;;;;;;7.00;7.00;;;;;22.45;83.60;101522.56;5032239;28;45452;-81
2022/05/16 10:22:03;;;;;;;;;8.50;8.50;;;;;22.48;83.54;101536.66;5044498;28;45377;-88
2022/05/16 10:24:33;;;;;;;;;8.25;8.00;;;;;22.53;83.02;101529.63;5039039;28;46007;-89
2022/05/16 10:27:09;;;;;;;;;9.75;7.00;;;;;22.62;81.93;101528.81;5035811;28;45300;-87
2022/05/16 10:29:41;;;;;;;;;9.75;7.50;;;;;22.61;81.59;101528.84;5041399;28;45324;-85
2022/05/16 10:35:15;;;;;;;;;8.75;7.00;;;;;22.56;79.99;101526.16;5030624;28;45877;-84
2022/05/16 10:37:43;;;;;;;;;10.25;7.00;;;;;22.51;79.30;101530.50;5019855;28;45320;-83
2022/05/16 10:40:38;;;;;;;;;6.75;6.50;;;;;22.47;80.01;101534.88;5022018;28;45407;-83
2022/05/16 10:43:24;;;;;;;;;19.50;16.50;;;;;22.48;81.65;101535.75;5034868;28;45563;-88
2022/05/16 10:45:56;;;;;;;;;24.25;24.25;;;;;22.48;78.50;101523.47;5038983;28;45571;-88
2022/05/16 10:48:39;;;;;;;;;6.00;6.00;;;;;22.51;77.67;101528.78;5030050;28;45685;-81
2022/05/16 10:51:15;;;;;;;;;8.25;6.00;;;;;22.60;77.01;101525.28;5037920;28;45364;-80
2022/05/16 10:53:45;;;;;;;;;7.50;6.00;;;;;22.65;76.46;101518.28;5046858;28;45367;-81
2022/05/16 10:56:49;;;;;;;;;6.25;6.00;;;;;22.68;76.00;101531.50;5058492;28;46206;-81
2022/05/16 10:59:39;;;;;;;;;6.75;6.50;;;;;22.69;76.27;101529.75;5020683;28;45984;-80
2022/05/16 11:02:20;;;;;;;;;4.25;4.25;;;;;22.77;75.04;101538.59;5032655;28;45553;-81
2022/05/16 11:04:56;;;;;;;;;5.00;5.00;;;;;22.82;72.37;101539.50;5038636;28;45404;-83
2022/05/16 11:07:54;;;;;;;;;6.00;4.50;;;;;22.83;70.73;101519.25;5049305;28;46359;-83
2022/05/16 11:10:35;;;;;;;;;6.50;5.00;;;;;22.81;71.24;101527.19;5048281;28;45887;-82
2022/05/16 11:13:53;;;;;;;;;4.50;3.50;;;;;22.78;70.00;101527.16;5054527;28;45526;-84
2022/05/16 11:16:31;;;;;;;;;5.75;5.75;;;;;22.82;70.64;101538.63;4974132;28;45469;-80
2022/05/16 11:19:28;;;;;;;;;7.00;6.00;;;;;22.87;69.95;101535.13;5033935;28;45436;-91
2022/05/16 11:22:20;;;;;;;;;5.00;4.00;;;;;22.93;69.02;101536.03;5039401;28;45427;-84
2022/05/16 11:24:56;;;;;;;;;5.25;4.75;;;;;22.96;69.33;101549.25;5039127;28;45380;-82
2022/05/16 11:27:37;;;;;;;;;6.00;4.00;;;;;22.99;69.66;101544.88;5019918;28;45521;-84
2022/05/16 11:30:12;;;;;;;;;5.50;4.25;;;;;23.11;70.00;101538.78;5030541;28;47926;-83
2022/05/16 11:32:58;;;;;;;;;4.25;4.25;;;;;23.20;67.80;101543.25;5038434;28;45828;-79
2022/05/16 11:35:38;;;;;;;;;3.75;3.75;;;;;23.23;66.95;101534.44;5045186;28;45387;-79
2022/05/16 11:38:22;;;;;;;;;4.00;4.00;;;;;23.25;67.37;101536.22;5036219;28;45463;-79
2022/05/16 11:40:48;;;;;;;;;5.50;4.75;;;;;23.28;67.00;101530.03;5035865;28;46170;-79
2022/05/16 11:43:27;;;;;;;;;4.25;3.50;;;;;23.29;67.66;101523.88;5036635;28;46954;-79
2022/05/16 11:46:18;;;;;;;;;6.75;3.75;;;;;23.39;67.18;101516.88;5033042;28;45606;-79
2022/05/16 11:48:59;;;;;;;;;4.00;4.00;;;;;23.50;66.78;101520.44;5035651;28;45482;-79
2022/05/16 11:51:53;;;;;;;;;4.50;4.00;;;;;23.56;66.99;101511.63;5015227;28;46467;-79
2022/05/16 11:54:40;;;;;;;;;5.50;4.50;;;;;23.63;68.17;101510.75;5033054;28;45862;-80
2022/05/16 12:03:08;;;;;;;;;4.50;4.00;;;;;23.97;66.31;101500.25;5036267;28;45447;-79